sensor_id;sensor_type;location;lat;lon;timestamp;temperature;humidity
68433;DHT22;55412;51.350;17.056;2022-12-18T00:01:21;-5.40;83.90
68433;DHT22;55412;51.350;17.056;2022-12-18T00:03:52;-5.40;83.80
68433;DHT22;55412;51.350;17.056;2022-12-18T00:06:20;-5.30;83.70
68433;DHT22;55412;51.350;17.056;2022-12-18T00:08:46;-5.30;83.70
68433;DHT22;55412;51.350;17.056;2022-12-18T00:11:15;-5.20;83.40
68433;DHT22;55412;51.350;17.056;2022-12-18T00:13:43;-5.20;83.10
68433;DHT22;55412;51.350;17.056;2022-12-18T00:16:15;-5.20;83.10
68433;DHT22;55412;51.350;17.056;2022-12-18T00:18:46;-5.20;83.00
68433;DHT22;55412;51.350;17.056;2022-12-18T00:21:14;-5.20;82.90
68433;DHT22;55412;51.350;17.056;2022-12-18T00:23:41;-5.20;82.30
68433;DHT22;55412;51.350;17.056;2022-12-18T00:26:12;-5.20;82.20
68433;DHT22;55412;51.350;17.056;2022-12-18T00:28:39;-5.30;82.00
68433;DHT22;55412;51.350;17.056;2022-12-18T00:31:07;-5.30;82.50
68433;DHT22;55412;51.350;17.056;2022-12-18T00:33:35;-5.30;82.70
68433;DHT22;55412;51.350;17.056;2022-12-18T00:38:54;-5.20;82.70
68433;DHT22;55412;51.350;17.056;2022-12-18T00:41:21;-5.20;82.50
68433;DHT22;55412;51.350;17.056;2022-12-18T00:44:08;-5.20;82.20
68433;DHT22;55412;51.350;17.056;2022-12-18T00:46:37;-5.20;82.40
68433;DHT22;55412;51.350;17.056;2022-12-18T00:49:04;-5.30;82.20
68433;DHT22;55412;51.350;17.056;2022-12-18T00:51:30;-5.20;82.40
68433;DHT22;55412;51.350;17.056;2022-12-18T00:53:56;-5.30;82.50
68433;DHT22;55412;51.350;17.056;2022-12-18T00:56:22;-5.30;82.80
68433;DHT22;55412;51.350;17.056;2022-12-18T00:58:49;-5.30;83.00
68433;DHT22;55412;51.350;17.056;2022-12-18T01:01:16;-5.30;83.20
68433;DHT22;55412;51.350;17.056;2022-12-18T01:03:42;-5.20;83.40
68433;DHT22;55412;51.350;17.056;2022-12-18T01:06:12;-5.20;83.30
68433;DHT22;55412;51.350;17.056;2022-12-18T01:08:39;-5.20;83.20
68433;DHT22;55412;51.350;17.056;2022-12-18T01:11:12;-5.20;83.40
68433;DHT22;55412;51.350;17.056;2022-12-18T01:13:40;-5.10;83.60
68433;DHT22;55412;51.350;17.056;2022-12-18T01:16:06;-5.10;83.60
68433;DHT22;55412;51.350;17.056;2022-12-18T01:18:32;-5.00;83.60
68433;DHT22;55412;51.350;17.056;2022-12-18T01:20:59;-5.00;83.40
68433;DHT22;55412;51.350;17.056;2022-12-18T01:23:25;-5.00;83.40
68433;DHT22;55412;51.350;17.056;2022-12-18T01:25:52;-4.90;83.40
68433;DHT22;55412;51.350;17.056;2022-12-18T01:28:18;-4.90;83.40
68433;DHT22;55412;51.350;17.056;2022-12-18T01:30:44;-4.90;83.30
68433;DHT22;55412;51.350;17.056;2022-12-18T01:33:10;-4.90;83.00
68433;DHT22;55412;51.350;17.056;2022-12-18T01:35:42;-4.90;83.20
68433;DHT22;55412;51.350;17.056;2022-12-18T01:38:08;-4.90;83.20
68433;DHT22;55412;51.350;17.056;2022-12-18T01:40:35;-4.90;83.20
68433;DHT22;55412;51.350;17.056;2022-12-18T01:43:01;-4.80;83.20
68433;DHT22;55412;51.350;17.056;2022-12-18T01:45:32;-4.90;82.80
68433;DHT22;55412;51.350;17.056;2022-12-18T01:48:01;-4.90;82.40
68433;DHT22;55412;51.350;17.056;2022-12-18T01:50:44;-4.90;83.30
68433;DHT22;55412;51.350;17.056;2022-12-18T01:53:22;-4.90;83.20
68433;DHT22;55412;51.350;17.056;2022-12-18T01:55:55;-4.90;83.40
68433;DHT22;55412;51.350;17.056;2022-12-18T02:01:18;-4.90;83.60
68433;DHT22;55412;51.350;17.056;2022-12-18T02:03:47;-4.80;83.70
68433;DHT22;55412;51.350;17.056;2022-12-18T02:06:38;-4.80;83.70
68433;DHT22;55412;51.350;17.056;2022-12-18T02:09:11;-4.70;83.70
68433;DHT22;55412;51.350;17.056;2022-12-18T02:14:29;-4.60;83.50
68433;DHT22;55412;51.350;17.056;2022-12-18T02:20:29;-4.50;83.30
68433;DHT22;55412;51.350;17.056;2022-12-18T02:23:31;-4.50;83.20
68433;DHT22;55412;51.350;17.056;2022-12-18T02:27:19;-4.50;82.70
68433;DHT22;55412;51.350;17.056;2022-12-18T02:29:24;-4.50;82.70
68433;DHT22;55412;51.350;17.056;2022-12-18T02:31:58;-4.50;82.40
68433;DHT22;55412;51.350;17.056;2022-12-18T02:34:31;-4.60;81.50
68433;DHT22;55412;51.350;17.056;2022-12-18T02:37:01;-4.70;82.40
68433;DHT22;55412;51.350;17.056;2022-12-18T02:39:29;-4.70;83.60
68433;DHT22;55412;51.350;17.056;2022-12-18T02:41:57;-4.70;83.40
68433;DHT22;55412;51.350;17.056;2022-12-18T02:44:24;-4.60;83.50
68433;DHT22;55412;51.350;17.056;2022-12-18T02:46:52;-4.60;83.30
68433;DHT22;55412;51.350;17.056;2022-12-18T02:49:44;-4.50;83.00
68433;DHT22;55412;51.350;17.056;2022-12-18T02:56:01;-4.40;82.00
68433;DHT22;55412;51.350;17.056;2022-12-18T02:58:26;-4.50;82.30
68433;DHT22;55412;51.350;17.056;2022-12-18T03:04:05;-4.40;82.60
68433;DHT22;55412;51.350;17.056;2022-12-18T03:06:40;-4.40;82.00
68433;DHT22;55412;51.350;17.056;2022-12-18T03:09:29;-4.40;82.40
68433;DHT22;55412;51.350;17.056;2022-12-18T03:12:08;-4.40;81.90
68433;DHT22;55412;51.350;17.056;2022-12-18T03:15:12;-4.40;82.20
68433;DHT22;55412;51.350;17.056;2022-12-18T03:17:44;-4.30;82.30
68433;DHT22;55412;51.350;17.056;2022-12-18T03:20:18;-4.30;82.00
68433;DHT22;55412;51.350;17.056;2022-12-18T03:23:09;-4.30;82.10
68433;DHT22;55412;51.350;17.056;2022-12-18T03:25:44;-4.30;82.30
68433;DHT22;55412;51.350;17.056;2022-12-18T03:28:16;-4.20;82.10
68433;DHT22;55412;51.350;17.056;2022-12-18T03:34:22;-4.20;81.70
68433;DHT22;55412;51.350;17.056;2022-12-18T03:36:50;-4.20;81.50
68433;DHT22;55412;51.350;17.056;2022-12-18T03:39:16;-4.20;81.70
68433;DHT22;55412;51.350;17.056;2022-12-18T03:42:43;-4.10;81.70
68433;DHT22;55412;51.350;17.056;2022-12-18T03:48:07;-4.20;81.00
68433;DHT22;55412;51.350;17.056;2022-12-18T03:51:06;-4.20;81.30
68433;DHT22;55412;51.350;17.056;2022-12-18T04:00:06;-4.20;81.00
68433;DHT22;55412;51.350;17.056;2022-12-18T04:02:43;-4.20;80.90
68433;DHT22;55412;51.350;17.056;2022-12-18T04:08:52;-4.20;80.80
68433;DHT22;55412;51.350;17.056;2022-12-18T04:11:18;-4.40;80.30
68433;DHT22;55412;51.350;17.056;2022-12-18T04:13:44;-4.40;80.60
68433;DHT22;55412;51.350;17.056;2022-12-18T04:16:10;-4.50;81.00
68433;DHT22;55412;51.350;17.056;2022-12-18T04:18:36;-4.50;81.40
68433;DHT22;55412;51.350;17.056;2022-12-18T04:21:03;-4.50;81.10
68433;DHT22;55412;51.350;17.056;2022-12-18T04:23:29;-4.50;81.40
68433;DHT22;55412;51.350;17.056;2022-12-18T04:25:55;-4.50;81.20
68433;DHT22;55412;51.350;17.056;2022-12-18T04:28:21;-4.50;81.40
68433;DHT22;55412;51.350;17.056;2022-12-18T04:30:47;-4.40;81.60
68433;DHT22;55412;51.350;17.056;2022-12-18T04:33:14;-4.40;81.70
68433;DHT22;55412;51.350;17.056;2022-12-18T04:35:40;-4.40;81.50
68433;DHT22;55412;51.350;17.056;2022-12-18T04:38:08;-4.50;81.20
68433;DHT22;55412;51.350;17.056;2022-12-18T04:40:34;-4.50;81.00
68433;DHT22;55412;51.350;17.056;2022-12-18T04:46:42;-4.80;81.80
68433;DHT22;55412;51.350;17.056;2022-12-18T04:49:08;-4.90;82.50
68433;DHT22;55412;51.350;17.056;2022-12-18T04:51:36;-5.10;82.80
68433;DHT22;55412;51.350;17.056;2022-12-18T04:54:02;-5.20;83.40
68433;DHT22;55412;51.350;17.056;2022-12-18T04:56:31;-5.20;84.10
68433;DHT22;55412;51.350;17.056;2022-12-18T04:58:57;-5.20;84.20
68433;DHT22;55412;51.350;17.056;2022-12-18T05:01:23;-5.20;84.20
68433;DHT22;55412;51.350;17.056;2022-12-18T05:03:51;-5.30;84.70
68433;DHT22;55412;51.350;17.056;2022-12-18T05:06:17;-5.30;84.90
68433;DHT22;55412;51.350;17.056;2022-12-18T05:08:43;-5.30;85.10
68433;DHT22;55412;51.350;17.056;2022-12-18T05:11:13;-5.30;85.30
68433;DHT22;55412;51.350;17.056;2022-12-18T05:13:42;-5.30;85.30
68433;DHT22;55412;51.350;17.056;2022-12-18T05:16:09;-5.30;85.40
68433;DHT22;55412;51.350;17.056;2022-12-18T05:18:35;-5.30;85.60
68433;DHT22;55412;51.350;17.056;2022-12-18T05:21:34;-5.30;85.60
68433;DHT22;55412;51.350;17.056;2022-12-18T05:24:00;-5.30;85.70
68433;DHT22;55412;51.350;17.056;2022-12-18T05:26:26;-5.30;85.80
68433;DHT22;55412;51.350;17.056;2022-12-18T05:28:52;-5.30;85.70
68433;DHT22;55412;51.350;17.056;2022-12-18T05:31:18;-5.20;85.60
68433;DHT22;55412;51.350;17.056;2022-12-18T05:33:44;-5.20;85.70
68433;DHT22;55412;51.350;17.056;2022-12-18T05:36:10;-5.20;85.80
68433;DHT22;55412;51.350;17.056;2022-12-18T05:38:38;-5.10;85.80
68433;DHT22;55412;51.350;17.056;2022-12-18T05:41:05;-5.00;85.70
68433;DHT22;55412;51.350;17.056;2022-12-18T05:43:34;-5.00;85.40
68433;DHT22;55412;51.350;17.056;2022-12-18T05:46:06;-5.10;85.20
68433;DHT22;55412;51.350;17.056;2022-12-18T05:48:34;-5.10;84.50
68433;DHT22;55412;51.350;17.056;2022-12-18T05:51:12;-5.10;84.70
68433;DHT22;55412;51.350;17.056;2022-12-18T05:53:40;-5.10;85.00
68433;DHT22;55412;51.350;17.056;2022-12-18T05:56:20;-5.10;85.20
68433;DHT22;55412;51.350;17.056;2022-12-18T05:58:50;-5.10;85.00
68433;DHT22;55412;51.350;17.056;2022-12-18T06:01:21;-5.10;85.20
68433;DHT22;55412;51.350;17.056;2022-12-18T06:03:49;-5.10;85.10
68433;DHT22;55412;51.350;17.056;2022-12-18T06:06:18;-5.10;85.00
68433;DHT22;55412;51.350;17.056;2022-12-18T06:08:57;-5.10;85.20
68433;DHT22;55412;51.350;17.056;2022-12-18T06:15:06;-5.10;84.80
68433;DHT22;55412;51.350;17.056;2022-12-18T06:17:33;-5.10;85.20
68433;DHT22;55412;51.350;17.056;2022-12-18T06:19:59;-5.10;85.00
68433;DHT22;55412;51.350;17.056;2022-12-18T06:22:27;-5.20;85.10
68433;DHT22;55412;51.350;17.056;2022-12-18T06:24:53;-5.20;85.10
68433;DHT22;55412;51.350;17.056;2022-12-18T06:27:19;-5.30;84.50
68433;DHT22;55412;51.350;17.056;2022-12-18T06:29:45;-5.30;84.70
68433;DHT22;55412;51.350;17.056;2022-12-18T06:32:11;-5.30;85.10
68433;DHT22;55412;51.350;17.056;2022-12-18T06:34:38;-5.30;85.40
68433;DHT22;55412;51.350;17.056;2022-12-18T06:37:04;-5.30;85.60
68433;DHT22;55412;51.350;17.056;2022-12-18T06:39:30;-5.30;85.20
68433;DHT22;55412;51.350;17.056;2022-12-18T06:41:56;-5.30;85.20
68433;DHT22;55412;51.350;17.056;2022-12-18T06:44:22;-5.30;85.30
68433;DHT22;55412;51.350;17.056;2022-12-18T06:46:48;-5.40;85.40
68433;DHT22;55412;51.350;17.056;2022-12-18T06:49:14;-5.40;84.90
68433;DHT22;55412;51.350;17.056;2022-12-18T06:51:42;-5.40;85.30
68433;DHT22;55412;51.350;17.056;2022-12-18T06:54:08;-5.40;85.30
68433;DHT22;55412;51.350;17.056;2022-12-18T06:56:34;-5.40;85.30
68433;DHT22;55412;51.350;17.056;2022-12-18T06:59:00;-5.40;85.40
68433;DHT22;55412;51.350;17.056;2022-12-18T07:01:26;-5.40;85.30
68433;DHT22;55412;51.350;17.056;2022-12-18T07:03:53;-5.40;85.10
68433;DHT22;55412;51.350;17.056;2022-12-18T07:06:22;-5.40;85.10
68433;DHT22;55412;51.350;17.056;2022-12-18T07:08:49;-5.50;85.10
68433;DHT22;55412;51.350;17.056;2022-12-18T07:11:16;-5.50;85.00
68433;DHT22;55412;51.350;17.056;2022-12-18T07:13:44;-5.50;85.20
68433;DHT22;55412;51.350;17.056;2022-12-18T07:16:21;-5.40;85.20
68433;DHT22;55412;51.350;17.056;2022-12-18T07:18:47;-5.40;85.30
68433;DHT22;55412;51.350;17.056;2022-12-18T07:21:16;-5.40;84.80
68433;DHT22;55412;51.350;17.056;2022-12-18T07:23:44;-5.40;84.90
68433;DHT22;55412;51.350;17.056;2022-12-18T07:26:14;-5.40;84.70
68433;DHT22;55412;51.350;17.056;2022-12-18T07:28:42;-5.40;84.90
68433;DHT22;55412;51.350;17.056;2022-12-18T07:31:17;-5.30;85.10
68433;DHT22;55412;51.350;17.056;2022-12-18T07:33:45;-5.30;84.80
68433;DHT22;55412;51.350;17.056;2022-12-18T07:36:11;-5.30;84.90
68433;DHT22;55412;51.350;17.056;2022-12-18T07:38:38;-5.30;84.50
68433;DHT22;55412;51.350;17.056;2022-12-18T07:41:07;-5.30;84.20
68433;DHT22;55412;51.350;17.056;2022-12-18T07:43:37;-5.30;84.30
68433;DHT22;55412;51.350;17.056;2022-12-18T07:46:04;-5.30;84.50
68433;DHT22;55412;51.350;17.056;2022-12-18T07:48:31;-5.30;84.40
68433;DHT22;55412;51.350;17.056;2022-12-18T07:51:05;-5.30;84.20
68433;DHT22;55412;51.350;17.056;2022-12-18T07:53:33;-5.40;84.50
68433;DHT22;55412;51.350;17.056;2022-12-18T07:56:03;-5.40;84.50
68433;DHT22;55412;51.350;17.056;2022-12-18T07:58:32;-5.40;84.60
68433;DHT22;55412;51.350;17.056;2022-12-18T08:01:11;-5.40;84.60
68433;DHT22;55412;51.350;17.056;2022-12-18T08:03:39;-5.40;84.70
68433;DHT22;55412;51.350;17.056;2022-12-18T08:06:07;-5.40;84.40
68433;DHT22;55412;51.350;17.056;2022-12-18T08:08:34;-5.50;84.30
68433;DHT22;55412;51.350;17.056;2022-12-18T08:11:01;-5.50;84.80
68433;DHT22;55412;51.350;17.056;2022-12-18T08:13:27;-5.50;84.60
68433;DHT22;55412;51.350;17.056;2022-12-18T08:15:58;-5.50;84.60
68433;DHT22;55412;51.350;17.056;2022-12-18T08:18:36;-5.50;84.50
68433;DHT22;55412;51.350;17.056;2022-12-18T08:21:16;-5.50;84.70
68433;DHT22;55412;51.350;17.056;2022-12-18T08:23:44;-5.50;84.30
68433;DHT22;55412;51.350;17.056;2022-12-18T08:26:13;-5.50;84.10
68433;DHT22;55412;51.350;17.056;2022-12-18T08:28:40;-5.50;84.20
68433;DHT22;55412;51.350;17.056;2022-12-18T08:31:07;-5.60;83.70
68433;DHT22;55412;51.350;17.056;2022-12-18T08:33:34;-5.50;83.60
68433;DHT22;55412;51.350;17.056;2022-12-18T08:36:01;-5.50;83.50
68433;DHT22;55412;51.350;17.056;2022-12-18T08:38:32;-5.60;83.50
68433;DHT22;55412;51.350;17.056;2022-12-18T08:41:03;-5.60;83.70
68433;DHT22;55412;51.350;17.056;2022-12-18T08:43:33;-5.60;83.60
68433;DHT22;55412;51.350;17.056;2022-12-18T08:46:19;-5.60;83.50
68433;DHT22;55412;51.350;17.056;2022-12-18T08:48:46;-5.60;83.50
68433;DHT22;55412;51.350;17.056;2022-12-18T08:51:13;-5.60;83.60
68433;DHT22;55412;51.350;17.056;2022-12-18T08:53:42;-5.70;83.50
68433;DHT22;55412;51.350;17.056;2022-12-18T08:56:08;-5.70;83.30
68433;DHT22;55412;51.350;17.056;2022-12-18T08:58:34;-5.80;83.30
68433;DHT22;55412;51.350;17.056;2022-12-18T09:01:05;-5.80;83.50
68433;DHT22;55412;51.350;17.056;2022-12-18T09:03:32;-5.80;83.70
68433;DHT22;55412;51.350;17.056;2022-12-18T09:05:58;-5.80;83.70
68433;DHT22;55412;51.350;17.056;2022-12-18T09:08:25;-5.80;83.80
68433;DHT22;55412;51.350;17.056;2022-12-18T09:10:52;-5.80;83.90
68433;DHT22;55412;51.350;17.056;2022-12-18T09:13:18;-5.80;83.90
68433;DHT22;55412;51.350;17.056;2022-12-18T09:15:52;-5.70;83.90
68433;DHT22;55412;51.350;17.056;2022-12-18T09:18:20;-5.70;84.00
68433;DHT22;55412;51.350;17.056;2022-12-18T09:20:48;-5.70;84.00
68433;DHT22;55412;51.350;17.056;2022-12-18T09:23:17;-5.60;84.10
68433;DHT22;55412;51.350;17.056;2022-12-18T09:25:43;-5.60;84.30
68433;DHT22;55412;51.350;17.056;2022-12-18T09:28:13;-5.60;83.60
68433;DHT22;55412;51.350;17.056;2022-12-18T09:30:44;-5.60;84.00
68433;DHT22;55412;51.350;17.056;2022-12-18T09:33:12;-5.70;83.70
68433;DHT22;55412;51.350;17.056;2022-12-18T09:35:39;-5.70;83.30
68433;DHT22;55412;51.350;17.056;2022-12-18T09:38:06;-5.60;83.30
68433;DHT22;55412;51.350;17.056;2022-12-18T09:41:37;-5.60;83.30
68433;DHT22;55412;51.350;17.056;2022-12-18T09:43:41;-5.60;83.30
68433;DHT22;55412;51.350;17.056;2022-12-18T09:46:15;-5.60;83.30
68433;DHT22;55412;51.350;17.056;2022-12-18T09:48:48;-5.60;83.60
68433;DHT22;55412;51.350;17.056;2022-12-18T09:53:52;-5.60;83.80
68433;DHT22;55412;51.350;17.056;2022-12-18T09:56:25;-5.60;83.30
68433;DHT22;55412;51.350;17.056;2022-12-18T09:58:59;-5.50;83.30
68433;DHT22;55412;51.350;17.056;2022-12-18T10:01:28;-5.50;83.10
68433;DHT22;55412;51.350;17.056;2022-12-18T10:03:55;-5.50;83.00
68433;DHT22;55412;51.350;17.056;2022-12-18T10:06:56;-5.50;83.00
68433;DHT22;55412;51.350;17.056;2022-12-18T10:15:40;-5.50;82.20
68433;DHT22;55412;51.350;17.056;2022-12-18T10:21:26;-5.60;82.60
68433;DHT22;55412;51.350;17.056;2022-12-18T10:26:49;-5.60;82.60
68433;DHT22;55412;51.350;17.056;2022-12-18T10:29:16;-5.60;82.80
68433;DHT22;55412;51.350;17.056;2022-12-18T10:31:43;-5.50;83.10
68433;DHT22;55412;51.350;17.056;2022-12-18T10:34:10;-5.50;82.00
68433;DHT22;55412;51.350;17.056;2022-12-18T10:36:38;-5.60;82.00
68433;DHT22;55412;51.350;17.056;2022-12-18T10:39:24;-5.60;82.00
68433;DHT22;55412;51.350;17.056;2022-12-18T10:41:52;-5.70;82.10
68433;DHT22;55412;51.350;17.056;2022-12-18T10:44:38;-5.70;82.20
68433;DHT22;55412;51.350;17.056;2022-12-18T10:47:10;-5.70;82.60
68433;DHT22;55412;51.350;17.056;2022-12-18T10:49:47;-5.60;82.60
68433;DHT22;55412;51.350;17.056;2022-12-18T10:52:18;-5.60;82.40
68433;DHT22;55412;51.350;17.056;2022-12-18T10:54:54;-5.60;82.60
68433;DHT22;55412;51.350;17.056;2022-12-18T10:57:33;-5.60;82.30
68433;DHT22;55412;51.350;17.056;2022-12-18T11:00:33;-5.60;82.40
68433;DHT22;55412;51.350;17.056;2022-12-18T11:03:01;-5.60;82.40
68433;DHT22;55412;51.350;17.056;2022-12-18T11:05:30;-5.60;82.50
68433;DHT22;55412;51.350;17.056;2022-12-18T11:07:59;-5.50;82.30
68433;DHT22;55412;51.350;17.056;2022-12-18T11:10:35;-5.60;82.20
68433;DHT22;55412;51.350;17.056;2022-12-18T11:13:24;-5.60;82.50
68433;DHT22;55412;51.350;17.056;2022-12-18T11:15:52;-5.50;81.60
68433;DHT22;55412;51.350;17.056;2022-12-18T11:18:19;-5.50;81.60
68433;DHT22;55412;51.350;17.056;2022-12-18T11:23:51;-5.50;81.40
68433;DHT22;55412;51.350;17.056;2022-12-18T11:26:18;-5.50;81.60
68433;DHT22;55412;51.350;17.056;2022-12-18T11:29:06;-5.50;81.80
68433;DHT22;55412;51.350;17.056;2022-12-18T11:31:34;-5.50;81.80
68433;DHT22;55412;51.350;17.056;2022-12-18T11:34:35;-5.50;81.70
68433;DHT22;55412;51.350;17.056;2022-12-18T11:37:03;-5.40;81.40
68433;DHT22;55412;51.350;17.056;2022-12-18T11:40:10;-5.50;81.40
68433;DHT22;55412;51.350;17.056;2022-12-18T11:42:58;-5.50;81.60
68433;DHT22;55412;51.350;17.056;2022-12-18T11:45:59;-5.50;81.80
68433;DHT22;55412;51.350;17.056;2022-12-18T11:51:43;-5.50;82.30
68433;DHT22;55412;51.350;17.056;2022-12-18T11:54:15;-5.40;81.90
68433;DHT22;55412;51.350;17.056;2022-12-18T11:56:49;-5.40;81.40
68433;DHT22;55412;51.350;17.056;2022-12-18T12:16:47;-5.60;82.20
68433;DHT22;55412;51.350;17.056;2022-12-18T12:25:04;-5.50;81.30
68433;DHT22;55412;51.350;17.056;2022-12-18T12:28:02;-5.60;81.30
68433;DHT22;55412;51.350;17.056;2022-12-18T12:33:33;-5.60;82.20
68433;DHT22;55412;51.350;17.056;2022-12-18T12:36:29;-5.70;82.20
68433;DHT22;55412;51.350;17.056;2022-12-18T12:39:01;-5.70;82.20
68433;DHT22;55412;51.350;17.056;2022-12-18T12:41:33;-5.60;82.80
68433;DHT22;55412;51.350;17.056;2022-12-18T12:44:24;-5.50;82.80
68433;DHT22;55412;51.350;17.056;2022-12-18T12:46:59;-5.50;82.50
68433;DHT22;55412;51.350;17.056;2022-12-18T12:49:30;-5.50;82.30
68433;DHT22;55412;51.350;17.056;2022-12-18T12:52:47;-5.50;82.50
68433;DHT22;55412;51.350;17.056;2022-12-18T12:55:25;-5.60;82.30
68433;DHT22;55412;51.350;17.056;2022-12-18T13:01:04;-5.60;82.90
68433;DHT22;55412;51.350;17.056;2022-12-18T13:03:52;-5.60;82.70
68433;DHT22;55412;51.350;17.056;2022-12-18T13:06:40;-5.60;82.40
68433;DHT22;55412;51.350;17.056;2022-12-18T13:09:09;-5.60;82.20
68433;DHT22;55412;51.350;17.056;2022-12-18T13:11:43;-5.60;82.20
68433;DHT22;55412;51.350;17.056;2022-12-18T13:14:32;-5.60;81.80
68433;DHT22;55412;51.350;17.056;2022-12-18T13:20:04;-5.70;81.60
68433;DHT22;55412;51.350;17.056;2022-12-18T13:25:32;-5.70;81.60
68433;DHT22;55412;51.350;17.056;2022-12-18T13:28:04;-5.70;81.80
68433;DHT22;55412;51.350;17.056;2022-12-18T13:30:46;-5.80;81.80
68433;DHT22;55412;51.350;17.056;2022-12-18T13:35:41;-5.90;81.20
68433;DHT22;55412;51.350;17.056;2022-12-18T13:40:58;-6.00;82.20
68433;DHT22;55412;51.350;17.056;2022-12-18T13:43:54;-6.10;82.50
68433;DHT22;55412;51.350;17.056;2022-12-18T13:46:45;-6.10;82.70
68433;DHT22;55412;51.350;17.056;2022-12-18T13:51:42;-6.00;82.20
68433;DHT22;55412;51.350;17.056;2022-12-18T13:54:29;-6.00;82.30
68433;DHT22;55412;51.350;17.056;2022-12-18T13:56:56;-6.00;82.50
68433;DHT22;55412;51.350;17.056;2022-12-18T13:59:36;-6.00;82.70
68433;DHT22;55412;51.350;17.056;2022-12-18T14:02:21;-6.00;82.70
68433;DHT22;55412;51.350;17.056;2022-12-18T14:04:51;-5.90;83.00
68433;DHT22;55412;51.350;17.056;2022-12-18T14:07:25;-5.90;82.50
68433;DHT22;55412;51.350;17.056;2022-12-18T14:10:00;-5.90;82.50
68433;DHT22;55412;51.350;17.056;2022-12-18T14:12:31;-5.90;82.50
68433;DHT22;55412;51.350;17.056;2022-12-18T14:20:25;-5.90;82.70
68433;DHT22;55412;51.350;17.056;2022-12-18T14:22:56;-5.90;82.70
68433;DHT22;55412;51.350;17.056;2022-12-18T14:25:27;-5.90;83.00
68433;DHT22;55412;51.350;17.056;2022-12-18T14:30:37;-6.00;83.00
68433;DHT22;55412;51.350;17.056;2022-12-18T14:33:18;-6.00;83.00
68433;DHT22;55412;51.350;17.056;2022-12-18T14:35:58;-6.00;83.00
68433;DHT22;55412;51.350;17.056;2022-12-18T14:38:36;-6.00;83.00
68433;DHT22;55412;51.350;17.056;2022-12-18T14:41:05;-6.10;83.20
68433;DHT22;55412;51.350;17.056;2022-12-18T14:43:36;-6.10;83.00
68433;DHT22;55412;51.350;17.056;2022-12-18T14:46:51;-6.10;83.00
68433;DHT22;55412;51.350;17.056;2022-12-18T14:49:03;-6.10;83.20
68433;DHT22;55412;51.350;17.056;2022-12-18T14:51:33;-6.10;83.00
68433;DHT22;55412;51.350;17.056;2022-12-18T14:54:05;-6.10;83.20
68433;DHT22;55412;51.350;17.056;2022-12-18T14:56:49;-6.10;83.20
68433;DHT22;55412;51.350;17.056;2022-12-18T14:59:23;-6.10;83.60
68433;DHT22;55412;51.350;17.056;2022-12-18T15:07:50;-6.20;83.60
68433;DHT22;55412;51.350;17.056;2022-12-18T15:10:23;-6.20;83.70
68433;DHT22;55412;51.350;17.056;2022-12-18T15:20:46;-6.30;83.40
68433;DHT22;55412;51.350;17.056;2022-12-18T15:31:33;-6.30;83.80
68433;DHT22;55412;51.350;17.056;2022-12-18T15:34:22;-6.40;84.00
68433;DHT22;55412;51.350;17.056;2022-12-18T15:36:50;-6.40;84.40
68433;DHT22;55412;51.350;17.056;2022-12-18T15:39:17;-6.40;84.50
68433;DHT22;55412;51.350;17.056;2022-12-18T15:41:43;-6.40;84.50
68433;DHT22;55412;51.350;17.056;2022-12-18T15:44:29;-6.50;84.30
68433;DHT22;55412;51.350;17.056;2022-12-18T15:46:56;-6.40;84.30
68433;DHT22;55412;51.350;17.056;2022-12-18T15:49:22;-6.50;84.10
68433;DHT22;55412;51.350;17.056;2022-12-18T15:51:53;-6.50;84.00
68433;DHT22;55412;51.350;17.056;2022-12-18T15:54:22;-6.60;83.90
68433;DHT22;55412;51.350;17.056;2022-12-18T15:57:11;-6.60;84.50
68433;DHT22;55412;51.350;17.056;2022-12-18T15:59:56;-6.60;84.90
68433;DHT22;55412;51.350;17.056;2022-12-18T16:02:24;-6.70;85.00
68433;DHT22;55412;51.350;17.056;2022-12-18T16:04:51;-6.70;85.10
68433;DHT22;55412;51.350;17.056;2022-12-18T16:07:18;-6.70;85.00
68433;DHT22;55412;51.350;17.056;2022-12-18T16:09:44;-6.70;85.10
68433;DHT22;55412;51.350;17.056;2022-12-18T16:12:21;-6.70;85.00
68433;DHT22;55412;51.350;17.056;2022-12-18T16:14:48;-6.80;85.10
68433;DHT22;55412;51.350;17.056;2022-12-18T16:17:15;-6.80;85.30
68433;DHT22;55412;51.350;17.056;2022-12-18T16:19:41;-6.80;85.30
68433;DHT22;55412;51.350;17.056;2022-12-18T16:22:24;-6.80;85.40
68433;DHT22;55412;51.350;17.056;2022-12-18T16:24:53;-6.80;85.50
68433;DHT22;55412;51.350;17.056;2022-12-18T16:27:21;-6.80;85.60
68433;DHT22;55412;51.350;17.056;2022-12-18T16:29:48;-6.90;85.80
68433;DHT22;55412;51.350;17.056;2022-12-18T16:32:17;-6.90;85.90
68433;DHT22;55412;51.350;17.056;2022-12-18T16:34:46;-6.90;85.80
68433;DHT22;55412;51.350;17.056;2022-12-18T16:37:14;-6.90;85.90
68433;DHT22;55412;51.350;17.056;2022-12-18T16:39:41;-6.90;86.00
68433;DHT22;55412;51.350;17.056;2022-12-18T16:42:19;-6.90;86.10
68433;DHT22;55412;51.350;17.056;2022-12-18T16:44:46;-6.90;86.00
68433;DHT22;55412;51.350;17.056;2022-12-18T16:47:13;-6.90;86.00
68433;DHT22;55412;51.350;17.056;2022-12-18T16:49:39;-7.00;85.90
68433;DHT22;55412;51.350;17.056;2022-12-18T16:52:06;-7.00;85.90
68433;DHT22;55412;51.350;17.056;2022-12-18T16:54:32;-7.00;85.70
68433;DHT22;55412;51.350;17.056;2022-12-18T16:57:01;-7.00;85.80
68433;DHT22;55412;51.350;17.056;2022-12-18T16:59:27;-7.10;85.90
68433;DHT22;55412;51.350;17.056;2022-12-18T17:01:54;-7.10;85.70
68433;DHT22;55412;51.350;17.056;2022-12-18T17:04:21;-7.10;85.60
68433;DHT22;55412;51.350;17.056;2022-12-18T17:06:48;-7.20;85.20
68433;DHT22;55412;51.350;17.056;2022-12-18T17:09:18;-7.20;85.20
68433;DHT22;55412;51.350;17.056;2022-12-18T17:11:50;-7.20;85.50
68433;DHT22;55412;51.350;17.056;2022-12-18T17:14:19;-7.20;85.80
68433;DHT22;55412;51.350;17.056;2022-12-18T17:16:48;-7.20;85.70
68433;DHT22;55412;51.350;17.056;2022-12-18T17:19:16;-7.20;85.50
68433;DHT22;55412;51.350;17.056;2022-12-18T17:21:43;-7.20;85.70
68433;DHT22;55412;51.350;17.056;2022-12-18T17:24:10;-7.20;85.90
68433;DHT22;55412;51.350;17.056;2022-12-18T17:26:36;-7.30;85.70
68433;DHT22;55412;51.350;17.056;2022-12-18T17:29:03;-7.20;85.70
68433;DHT22;55412;51.350;17.056;2022-12-18T17:31:29;-7.30;86.00
68433;DHT22;55412;51.350;17.056;2022-12-18T17:33:56;-7.30;85.70
68433;DHT22;55412;51.350;17.056;2022-12-18T17:36:24;-7.30;85.50
68433;DHT22;55412;51.350;17.056;2022-12-18T17:38:58;-7.30;85.90
68433;DHT22;55412;51.350;17.056;2022-12-18T17:41:26;-7.40;85.70
68433;DHT22;55412;51.350;17.056;2022-12-18T17:43:58;-7.40;85.50
68433;DHT22;55412;51.350;17.056;2022-12-18T17:46:28;-7.50;85.60
68433;DHT22;55412;51.350;17.056;2022-12-18T17:48:56;-7.50;85.40
68433;DHT22;55412;51.350;17.056;2022-12-18T17:51:23;-7.60;85.30
68433;DHT22;55412;51.350;17.056;2022-12-18T17:53:50;-7.60;85.50
68433;DHT22;55412;51.350;17.056;2022-12-18T17:56:18;-7.60;85.10
68433;DHT22;55412;51.350;17.056;2022-12-18T17:58:45;-7.60;85.50
68433;DHT22;55412;51.350;17.056;2022-12-18T18:01:14;-7.60;85.80